createdAt,value
2023-05-19T00:00:03.338Z,94.22
2023-05-19T00:00:13.842Z,94.22
2023-05-19T00:00:24.352Z,94.22
2023-05-19T00:00:35.102Z,94.37
2023-05-19T00:00:47.830Z,94.37
2023-05-19T00:00:55.893Z,94.47
2023-05-19T00:01:06.397Z,94.47
2023-05-19T00:01:16.944Z,94.47
2023-05-19T00:01:27.418Z,94.57
2023-05-19T00:01:37.978Z,94.57
2023-05-19T00:01:48.438Z,94.68
2023-05-19T00:01:58.984Z,94.68
2023-05-19T00:02:09.631Z,94.68
2023-05-19T00:02:20.010Z,94.78
2023-05-19T00:02:30.529Z,94.78
2023-05-19T00:02:41.198Z,94.78
2023-05-19T00:02:51.624Z,94.89
2023-05-19T00:03:02.126Z,94.84
2023-05-19T00:03:12.624Z,94.84
2023-05-19T00:03:23.058Z,94.84
2023-05-19T00:03:33.609Z,94.94
2023-05-19T00:03:44.088Z,94.94
2023-05-19T00:03:54.597Z,94.94
2023-05-19T00:04:05.084Z,94.94
2023-05-19T00:04:15.607Z,94.94
2023-05-19T00:04:26.083Z,94.84
2023-05-19T00:04:36.599Z,94.84
2023-05-19T00:04:47.104Z,94.84
2023-05-19T00:04:57.613Z,94.84
2023-05-19T00:05:08.151Z,94.89
2023-05-19T00:05:18.665Z,94.78
2023-05-19T00:05:29.188Z,94.78
2023-05-19T00:05:39.674Z,94.78
2023-05-19T00:05:50.193Z,94.78
2023-05-19T00:06:00.736Z,94.73
2023-05-19T00:06:11.197Z,94.63
2023-05-19T00:06:21.803Z,94.63
2023-05-19T00:06:32.268Z,94.53
2023-05-19T00:06:42.708Z,94.43
2023-05-19T00:06:53.212Z,94.32
2023-05-19T00:07:03.734Z,94.22
2023-05-19T00:07:14.231Z,94.22
2023-05-19T00:07:24.746Z,94.12
2023-05-19T00:07:35.268Z,94.12
2023-05-19T00:07:45.777Z,94.01
2023-05-19T00:07:56.279Z,93.91
2023-05-19T00:08:06.788Z,93.91
2023-05-19T00:08:17.319Z,93.80
2023-05-19T00:08:27.815Z,93.80
2023-05-19T00:08:38.320Z,93.70
2023-05-19T00:08:48.828Z,93.70
2023-05-19T00:08:59.374Z,93.60
2023-05-19T00:09:09.910Z,93.60
2023-05-19T00:09:20.357Z,93.60
2023-05-19T00:09:30.871Z,93.49
2023-05-19T00:09:41.385Z,93.60
2023-05-19T00:09:51.896Z,93.70
2023-05-19T00:10:02.439Z,93.80
2023-05-19T00:10:12.925Z,93.91
2023-05-19T00:10:23.429Z,93.91
2023-05-19T00:10:34.126Z,93.91
2023-05-19T00:10:44.446Z,94.01
2023-05-19T00:10:54.955Z,94.01
2023-05-19T00:11:05.474Z,94.01
2023-05-19T00:11:15.980Z,94.01
2023-05-19T00:11:26.489Z,94.01
2023-05-19T00:11:36.998Z,94.01
2023-05-19T00:11:47.507Z,94.01
2023-05-19T00:11:58.016Z,94.01
2023-05-19T00:12:08.524Z,94.01
2023-05-19T00:12:19.033Z,94.01
2023-05-19T00:12:29.554Z,93.91
2023-05-19T00:12:40.059Z,93.91
2023-05-19T00:12:52.477Z,94.01
2023-05-19T00:13:01.072Z,94.01
2023-05-19T00:13:11.587Z,94.01
2023-05-19T00:13:22.096Z,94.01
2023-05-19T00:13:32.605Z,94.01
2023-05-19T00:13:43.106Z,94.01
2023-05-19T00:13:53.627Z,94.01
2023-05-19T00:14:04.131Z,94.01
2023-05-19T00:14:14.645Z,94.01
2023-05-19T00:14:25.703Z,94.01
2023-05-19T00:14:35.658Z,94.01
2023-05-19T00:14:46.170Z,94.01
2023-05-19T00:14:56.696Z,94.01
2023-05-19T00:15:07.197Z,94.01
2023-05-19T00:15:17.708Z,94.01
2023-05-19T00:15:28.211Z,94.01
2023-05-19T00:15:38.762Z,94.01
2023-05-19T00:15:49.260Z,94.01
2023-05-19T00:15:59.766Z,94.01
2023-05-19T00:16:10.318Z,94.01
2023-05-19T00:16:20.803Z,94.01
2023-05-19T00:16:31.390Z,94.01
2023-05-19T00:16:41.948Z,94.06
2023-05-19T00:16:52.327Z,94.16
2023-05-19T00:17:02.788Z,94.16
2023-05-19T00:17:13.308Z,94.26
2023-05-19T00:17:23.808Z,94.26
2023-05-19T00:17:34.342Z,94.26
2023-05-19T00:17:44.951Z,94.37
2023-05-19T00:17:55.424Z,94.37
2023-05-19T00:18:05.888Z,94.47
2023-05-19T00:18:16.360Z,94.47
2023-05-19T00:18:26.860Z,94.57
2023-05-19T00:18:37.409Z,94.57
2023-05-19T00:18:47.915Z,94.68
2023-05-19T00:18:58.411Z,94.78
2023-05-19T00:19:08.938Z,94.89
2023-05-19T00:19:19.471Z,94.89
2023-05-19T00:19:29.974Z,94.98
2023-05-19T00:19:40.421Z,95.09
2023-05-19T00:19:50.930Z,95.09
2023-05-19T00:20:01.471Z,95.19
2023-05-19T00:20:11.943Z,95.24
2023-05-19T00:20:22.461Z,95.34
2023-05-19T00:20:33.269Z,95.34
2023-05-19T00:20:43.478Z,95.44
2023-05-19T00:20:53.992Z,95.44
2023-05-19T00:21:04.714Z,95.54
2023-05-19T00:21:15.006Z,95.54
2023-05-19T00:21:25.508Z,95.65
2023-05-19T00:21:36.030Z,95.65
2023-05-19T00:21:46.544Z,95.65
2023-05-19T00:21:57.051Z,95.75
2023-05-19T00:22:07.599Z,95.75
2023-05-19T00:22:18.072Z,95.86
2023-05-19T00:22:28.576Z,95.86
2023-05-19T00:22:39.098Z,95.96
2023-05-19T00:22:49.595Z,96.06
2023-05-19T00:23:00.156Z,96.06
2023-05-19T00:23:10.632Z,96.17
2023-05-19T00:23:21.145Z,96.17
2023-05-19T00:23:31.647Z,96.17
2023-05-19T00:23:42.152Z,96.27
2023-05-19T00:23:52.682Z,96.37
2023-05-19T00:24:03.177Z,96.37
2023-05-19T00:24:13.681Z,96.48
2023-05-19T00:24:24.198Z,96.48
2023-05-19T00:24:34.713Z,96.58
2023-05-19T00:24:45.216Z,96.69
2023-05-19T00:24:55.716Z,96.79
2023-05-19T00:25:06.262Z,96.79
2023-05-19T00:25:16.760Z,96.89
2023-05-19T00:25:27.293Z,96.89
2023-05-19T00:25:37.760Z,97.00
2023-05-19T00:25:48.264Z,97.00
2023-05-19T00:25:58.781Z,97.00
2023-05-19T00:26:09.278Z,97.10
2023-05-19T00:26:19.783Z,97.10
2023-05-19T00:26:30.292Z,97.10
2023-05-19T00:26:40.809Z,97.10
2023-05-19T00:26:51.314Z,97.20
2023-05-19T00:27:01.903Z,97.20
2023-05-19T00:27:12.331Z,97.20
2023-05-19T00:27:22.837Z,97.20
2023-05-19T00:27:33.347Z,97.31
2023-05-19T00:27:43.866Z,97.31
2023-05-19T00:27:54.373Z,97.26
2023-05-19T00:28:04.874Z,97.26
2023-05-19T00:28:15.396Z,97.26
2023-05-19T00:28:25.894Z,97.26
2023-05-19T00:28:36.403Z,97.16
2023-05-19T00:28:46.923Z,97.16
2023-05-19T00:28:57.421Z,97.06
2023-05-19T00:29:07.938Z,96.95
2023-05-19T00:29:18.487Z,96.95
2023-05-19T00:29:28.971Z,96.85
2023-05-19T00:29:39.464Z,96.75
2023-05-19T00:29:49.972Z,96.64
2023-05-19T00:30:00.496Z,96.54
2023-05-19T00:30:10.997Z,96.33
2023-05-19T00:30:21.510Z,96.23
2023-05-19T00:30:32.280Z,96.12
2023-05-19T00:30:42.527Z,95.92
2023-05-19T00:30:53.059Z,95.81
2023-05-19T00:31:03.535Z,95.71
2023-05-19T00:31:14.052Z,95.61
2023-05-19T00:31:24.573Z,95.71
2023-05-19T00:31:35.102Z,95.81
2023-05-19T00:31:45.621Z,95.92
2023-05-19T00:31:56.119Z,95.92
2023-05-19T00:32:06.670Z,95.92
2023-05-19T00:32:17.164Z,95.92
2023-05-19T00:32:27.665Z,95.92
2023-05-19T00:32:38.171Z,95.81
2023-05-19T00:32:48.637Z,95.81
2023-05-19T00:32:59.183Z,95.71
2023-05-19T00:33:09.657Z,95.71
2023-05-19T00:33:20.149Z,95.71
2023-05-19T00:33:30.654Z,95.61
2023-05-19T00:33:41.163Z,95.61
2023-05-19T00:33:51.684Z,95.50
2023-05-19T00:34:02.199Z,95.50
2023-05-19T00:34:12.699Z,95.40
2023-05-19T00:34:23.213Z,95.40
2023-05-19T00:34:33.717Z,95.40
2023-05-19T00:34:44.231Z,95.40
2023-05-19T00:34:54.730Z,95.29
2023-05-19T00:35:05.251Z,95.19
2023-05-19T00:35:15.760Z,95.19
2023-05-19T00:35:26.261Z,95.09
2023-05-19T00:35:36.824Z,95.04
2023-05-19T00:35:47.282Z,95.15
2023-05-19T00:35:57.854Z,95.15
2023-05-19T00:36:08.303Z,95.15
2023-05-19T00:36:18.814Z,95.15
2023-05-19T00:36:29.316Z,95.15
2023-05-19T00:36:39.834Z,95.04
2023-05-19T00:36:50.366Z,95.04
2023-05-19T00:37:00.877Z,94.94
2023-05-19T00:37:11.371Z,94.94
2023-05-19T00:37:21.876Z,94.84
2023-05-19T00:37:32.395Z,94.84
2023-05-19T00:37:42.894Z,94.73
2023-05-19T00:37:53.406Z,94.73
2023-05-19T00:38:03.931Z,94.73
2023-05-19T00:38:14.453Z,94.73
2023-05-19T00:38:24.939Z,94.63
2023-05-19T00:38:35.441Z,94.63
2023-05-19T00:38:45.956Z,94.73
2023-05-19T00:38:56.469Z,94.73
2023-05-19T00:39:06.982Z,94.84
2023-05-19T00:39:17.489Z,94.84
2023-05-19T00:39:27.998Z,94.84
2023-05-19T00:39:38.500Z,94.73
2023-05-19T00:39:49.004Z,94.63
2023-05-19T00:39:59.522Z,94.63
2023-05-19T00:40:10.027Z,94.53
2023-05-19T00:40:20.532Z,94.53
2023-05-19T00:40:31.300Z,94.43
2023-05-19T00:40:41.574Z,94.43
2023-05-19T00:40:52.057Z,94.37
2023-05-19T00:41:02.569Z,94.32
2023-05-19T00:41:13.108Z,94.32
2023-05-19T00:41:23.605Z,94.22
2023-05-19T00:41:34.104Z,94.26
2023-05-19T00:41:44.624Z,94.26
2023-05-19T00:41:55.120Z,94.16
2023-05-19T00:42:05.630Z,94.16
2023-05-19T00:42:16.148Z,94.06
2023-05-19T00:42:26.658Z,93.95
2023-05-19T00:42:37.173Z,93.91
2023-05-19T00:42:47.680Z,93.91
2023-05-19T00:42:58.184Z,93.91
2023-05-19T00:43:08.696Z,93.91
2023-05-19T00:43:19.228Z,94.01
2023-05-19T00:43:29.719Z,94.01
2023-05-19T00:43:40.232Z,94.01
2023-05-19T00:43:50.741Z,94.01
2023-05-19T00:44:01.249Z,94.01
2023-05-19T00:44:11.765Z,94.01
2023-05-19T00:44:22.269Z,94.01
2023-05-19T00:44:32.768Z,94.01
2023-05-19T00:44:43.278Z,94.01
2023-05-19T00:44:53.792Z,94.01
2023-05-19T00:45:04.300Z,93.91
2023-05-19T00:45:14.800Z,93.91
2023-05-19T00:45:25.310Z,93.91
2023-05-19T00:45:35.819Z,93.91
2023-05-19T00:45:46.329Z,93.91
2023-05-19T00:45:56.836Z,93.80
2023-05-19T00:46:07.499Z,93.80
2023-05-19T00:46:17.964Z,93.80
2023-05-19T00:46:28.391Z,93.85
2023-05-19T00:46:38.923Z,93.74
2023-05-19T00:46:49.416Z,93.74
2023-05-19T00:46:59.962Z,93.64
2023-05-19T00:47:10.429Z,93.64
2023-05-19T00:47:20.975Z,93.64
2023-05-19T00:47:31.503Z,93.64
2023-05-19T00:47:42.016Z,93.74
2023-05-19T00:47:52.490Z,93.85
2023-05-19T00:48:03.000Z,93.95
2023-05-19T00:48:13.480Z,94.06
2023-05-19T00:48:24.001Z,94.06
2023-05-19T00:48:34.519Z,94.16
2023-05-19T00:48:45.013Z,94.16
2023-05-19T00:48:55.521Z,94.16
2023-05-19T00:49:06.029Z,94.16
2023-05-19T00:49:16.533Z,94.16
2023-05-19T00:49:27.048Z,94.31
2023-05-19T00:49:37.549Z,94.31
2023-05-19T00:49:48.064Z,94.31
2023-05-19T00:49:58.569Z,94.41
2023-05-19T00:50:09.090Z,94.51
2023-05-19T00:50:19.592Z,94.62
2023-05-19T00:50:30.463Z,94.72
2023-05-19T00:50:40.635Z,94.82
2023-05-19T00:50:51.136Z,94.93
2023-05-19T00:51:01.620Z,95.03
2023-05-19T00:51:12.138Z,95.14
2023-05-19T00:51:22.636Z,95.24
2023-05-19T00:51:33.203Z,95.24
2023-05-19T00:51:43.664Z,95.34
2023-05-19T00:51:54.181Z,95.34
2023-05-19T00:52:04.692Z,95.34
2023-05-19T00:52:15.177Z,95.34
2023-05-19T00:52:25.695Z,95.34
2023-05-19T00:52:36.197Z,95.44
2023-05-19T00:52:46.707Z,95.44
2023-05-19T00:52:57.214Z,95.44
2023-05-19T00:53:07.721Z,95.54
2023-05-19T00:53:18.236Z,95.54
2023-05-19T00:53:28.756Z,95.54
2023-05-19T00:53:39.284Z,95.65
2023-05-19T00:53:49.764Z,95.70
2023-05-19T00:54:00.269Z,95.80
2023-05-19T00:54:10.784Z,95.80
2023-05-19T00:54:21.287Z,95.80
2023-05-19T00:54:31.789Z,95.80
2023-05-19T00:54:42.314Z,95.80
2023-05-19T00:54:52.806Z,95.80
2023-05-19T00:55:03.320Z,95.75
2023-05-19T00:55:13.841Z,95.80
2023-05-19T00:55:24.346Z,95.80
2023-05-19T00:55:34.843Z,95.86
2023-05-19T00:55:45.368Z,95.90
2023-05-19T00:55:55.861Z,95.90
2023-05-19T00:56:06.375Z,95.90
2023-05-19T00:56:16.941Z,95.80
2023-05-19T00:56:27.418Z,95.80
2023-05-19T00:56:37.935Z,95.90
2023-05-19T00:56:48.414Z,95.90
2023-05-19T00:56:58.913Z,96.01
2023-05-19T00:57:09.428Z,96.01
2023-05-19T00:57:19.945Z,96.11
2023-05-19T00:57:30.441Z,96.21
2023-05-19T00:57:40.954Z,96.21
2023-05-19T00:57:51.470Z,96.31
2023-05-19T00:58:01.975Z,96.31
2023-05-19T00:58:12.483Z,96.31
2023-05-19T00:58:22.990Z,96.31
2023-05-19T00:58:33.531Z,96.31
2023-05-19T00:58:44.023Z,96.31
2023-05-19T00:58:54.519Z,96.21
2023-05-19T00:59:05.020Z,96.11
2023-05-19T00:59:15.533Z,96.11
2023-05-19T00:59:26.037Z,96.01
2023-05-19T00:59:36.549Z,95.90
2023-05-19T00:59:47.066Z,95.80
2023-05-19T00:59:57.584Z,95.80
2023-05-19T01:00:08.086Z,95.70
2023-05-19T01:00:18.611Z,95.59
2023-05-19T01:00:29.161Z,95.59
2023-05-19T01:00:39.695Z,95.49
2023-05-19T01:00:50.216Z,95.49
2023-05-19T01:01:00.674Z,95.39
2023-05-19T01:01:11.274Z,95.28
2023-05-19T01:01:21.990Z,95.28
2023-05-19T01:01:32.276Z,95.18
2023-05-19T01:01:42.665Z,95.18
2023-05-19T01:01:53.166Z,95.18
2023-05-19T01:02:03.683Z,95.28
2023-05-19T01:02:14.187Z,95.39
2023-05-19T01:02:24.818Z,95.49
2023-05-19T01:02:35.329Z,95.65
2023-05-19T01:02:45.814Z,95.75
2023-05-19T01:02:56.340Z,95.75
2023-05-19T01:03:06.870Z,95.86
2023-05-19T01:03:17.331Z,95.86
2023-05-19T01:03:27.890Z,95.86
2023-05-19T01:03:38.323Z,95.90
2023-05-19T01:03:48.944Z,95.90
2023-05-19T01:03:59.528Z,95.90
2023-05-19T01:04:09.895Z,96.01
2023-05-19T01:04:20.315Z,96.01
2023-05-19T01:04:30.812Z,96.01
2023-05-19T01:04:41.321Z,96.01
2023-05-19T01:04:51.838Z,96.01
2023-05-19T01:05:02.351Z,95.96
2023-05-19T01:05:12.870Z,95.96
2023-05-19T01:05:23.372Z,95.96
2023-05-19T01:05:33.878Z,95.86
2023-05-19T01:05:44.404Z,95.86
2023-05-19T01:05:54.899Z,95.75
2023-05-19T01:06:05.508Z,95.75
2023-05-19T01:06:15.932Z,95.65
2023-05-19T01:06:26.438Z,95.65
2023-05-19T01:06:36.936Z,95.54
2023-05-19T01:06:47.447Z,95.59
2023-05-19T01:06:57.959Z,95.59
2023-05-19T01:07:08.457Z,95.59
2023-05-19T01:07:18.975Z,95.59
2023-05-19T01:07:29.538Z,95.70
2023-05-19T01:07:39.994Z,95.70
2023-05-19T01:07:50.504Z,95.70
2023-05-19T01:08:01.016Z,95.80
2023-05-19T01:08:11.516Z,95.80
2023-05-19T01:08:22.060Z,95.80
2023-05-19T01:08:32.546Z,95.80
2023-05-19T01:08:43.051Z,95.90
2023-05-19T01:08:53.561Z,95.90
2023-05-19T01:09:04.069Z,95.90
2023-05-19T01:09:14.575Z,95.90
2023-05-19T01:09:25.100Z,95.90
2023-05-19T01:09:35.590Z,95.90
2023-05-19T01:09:46.108Z,95.90
2023-05-19T01:09:56.612Z,95.90
2023-05-19T01:10:07.186Z,95.90
2023-05-19T01:10:17.635Z,95.90
2023-05-19T01:10:28.138Z,95.90
2023-05-19T01:10:38.649Z,95.90
2023-05-19T01:10:49.158Z,95.90
2023-05-19T01:10:59.677Z,95.90
2023-05-19T01:11:10.180Z,95.90
2023-05-19T01:11:20.722Z,95.90
2023-05-19T01:11:31.220Z,96.01
2023-05-19T01:11:41.708Z,96.01
2023-05-19T01:11:52.237Z,96.01
2023-05-19T01:12:02.736Z,96.01
2023-05-19T01:12:13.240Z,96.01
2023-05-19T01:12:23.743Z,96.01
2023-05-19T01:12:34.254Z,96.01
2023-05-19T01:12:44.760Z,96.01
2023-05-19T01:12:55.264Z,95.95
2023-05-19T01:13:05.778Z,95.95
2023-05-19T01:13:16.280Z,95.95
2023-05-19T01:13:26.788Z,95.95
2023-05-19T01:13:38.155Z,95.84
2023-05-19T01:13:47.810Z,95.84
2023-05-19T01:13:58.368Z,95.84
2023-05-19T01:14:08.824Z,95.84
2023-05-19T01:14:19.334Z,95.84
2023-05-19T01:14:29.850Z,95.74
2023-05-19T01:14:40.359Z,95.84
2023-05-19T01:14:50.869Z,95.84
2023-05-19T01:15:01.375Z,95.84
2023-05-19T01:15:11.888Z,95.84
2023-05-19T01:15:22.393Z,95.95
2023-05-19T01:15:32.900Z,95.95
2023-05-19T01:15:43.409Z,96.05
2023-05-19T01:15:53.923Z,96.15
2023-05-19T01:16:04.458Z,96.15
2023-05-19T01:16:14.964Z,96.15
2023-05-19T01:16:25.475Z,96.15
2023-05-19T01:16:36.044Z,96.15
2023-05-19T01:16:46.590Z,96.15
2023-05-19T01:16:57.137Z,96.15
2023-05-19T01:17:07.504Z,96.05
2023-05-19T01:17:17.979Z,96.05
2023-05-19T01:17:28.600Z,95.95
2023-05-19T01:17:39.021Z,95.95
2023-05-19T01:17:49.575Z,95.95
2023-05-19T01:18:00.083Z,95.84
2023-05-19T01:18:10.534Z,95.84
2023-05-19T01:18:21.048Z,95.84
2023-05-19T01:18:31.541Z,95.84
2023-05-19T01:18:42.079Z,95.84
2023-05-19T01:18:52.554Z,95.84
2023-05-19T01:19:03.099Z,95.95
2023-05-19T01:19:13.631Z,95.95
2023-05-19T01:19:24.130Z,95.95
2023-05-19T01:19:34.585Z,95.84
2023-05-19T01:19:45.097Z,95.84
2023-05-19T01:19:55.603Z,95.84
2023-05-19T01:20:06.109Z,95.84
2023-05-19T01:20:16.625Z,95.84
2023-05-19T01:20:27.126Z,95.84
2023-05-19T01:20:37.637Z,95.84
2023-05-19T01:20:48.185Z,95.84
2023-05-19T01:20:58.655Z,95.84
2023-05-19T01:21:09.155Z,95.84
2023-05-19T01:21:19.665Z,95.84
2023-05-19T01:21:30.181Z,95.84
2023-05-19T01:21:40.678Z,95.84
2023-05-19T01:21:51.198Z,95.84
2023-05-19T01:22:01.713Z,95.95
2023-05-19T01:22:12.206Z,95.95
2023-05-19T01:22:22.742Z,95.95
2023-05-19T01:22:33.234Z,95.80
2023-05-19T01:22:43.762Z,95.84
2023-05-19T01:22:54.246Z,95.80
2023-05-19T01:23:04.767Z,95.84
2023-05-19T01:23:15.369Z,95.80
2023-05-19T01:23:25.775Z,95.80
2023-05-19T01:23:36.275Z,95.90
2023-05-19T01:23:46.772Z,95.90
2023-05-19T01:23:57.286Z,95.90
2023-05-19T01:24:07.798Z,95.90
2023-05-19T01:24:18.309Z,95.90
2023-05-19T01:24:28.814Z,95.90
2023-05-19T01:24:39.331Z,95.80
2023-05-19T01:24:49.857Z,95.80
2023-05-19T01:25:00.343Z,95.70
2023-05-19T01:25:10.860Z,95.70
2023-05-19T01:25:21.364Z,95.70
2023-05-19T01:25:31.867Z,95.70
2023-05-19T01:25:42.364Z,95.59
2023-05-19T01:25:52.878Z,95.59
2023-05-19T01:26:03.406Z,95.59
2023-05-19T01:26:13.895Z,95.59
2023-05-19T01:26:24.397Z,95.59
2023-05-19T01:26:34.911Z,95.59
2023-05-19T01:26:45.417Z,95.59
2023-05-19T01:26:55.938Z,95.59
2023-05-19T01:27:06.426Z,95.59
2023-05-19T01:27:16.949Z,95.59
2023-05-19T01:27:27.445Z,95.59
2023-05-19T01:27:37.959Z,95.59
2023-05-19T01:27:48.482Z,95.59
2023-05-19T01:27:58.985Z,95.59
2023-05-19T01:28:09.472Z,95.59
2023-05-19T01:28:20.016Z,95.59
2023-05-19T01:28:30.496Z,95.59
2023-05-19T01:28:40.996Z,95.59
2023-05-19T01:28:51.516Z,95.59
2023-05-19T01:29:02.015Z,95.49
2023-05-19T01:29:12.529Z,95.49
2023-05-19T01:29:23.027Z,95.49
2023-05-19T01:29:33.544Z,95.39
2023-05-19T01:29:44.079Z,95.39
2023-05-19T01:29:54.571Z,95.39
2023-05-19T01:30:05.064Z,95.28
2023-05-19T01:30:15.561Z,95.32
2023-05-19T01:30:26.074Z,95.22
2023-05-19T01:30:36.589Z,95.22
2023-05-19T01:30:47.085Z,95.12
2023-05-19T01:30:57.592Z,95.01
2023-05-19T01:31:08.103Z,95.01
2023-05-19T01:31:18.650Z,94.91
2023-05-19T01:31:29.148Z,94.81
2023-05-19T01:31:39.669Z,94.81
2023-05-19T01:31:50.156Z,94.81
2023-05-19T01:32:00.650Z,94.81
2023-05-19T01:32:11.245Z,94.81
2023-05-19T01:32:21.679Z,94.81
2023-05-19T01:32:32.206Z,94.91
2023-05-19T01:32:42.709Z,94.97
2023-05-19T01:32:53.210Z,95.07
2023-05-19T01:33:03.754Z,95.28
2023-05-19T01:33:14.221Z,95.39
2023-05-19T01:33:24.743Z,95.49
2023-05-19T01:33:35.223Z,95.70
2023-05-19T01:33:45.727Z,95.80
2023-05-19T01:33:56.233Z,95.90
2023-05-19T01:34:06.764Z,96.01
2023-05-19T01:34:17.256Z,96.01
2023-05-19T01:34:27.762Z,96.11
2023-05-19T01:34:38.268Z,96.11
2023-05-19T01:34:48.790Z,96.11
2023-05-19T01:34:59.282Z,96.01
2023-05-19T01:35:09.785Z,96.01
2023-05-19T01:35:20.310Z,95.90
2023-05-19T01:35:30.821Z,95.80
2023-05-19T01:35:41.314Z,95.80
2023-05-19T01:35:51.855Z,95.70
2023-05-19T01:36:02.349Z,95.70
2023-05-19T01:36:12.853Z,95.70
2023-05-19T01:36:23.354Z,95.70
2023-05-19T01:36:33.861Z,95.65
2023-05-19T01:36:44.364Z,95.65
2023-05-19T01:36:54.866Z,95.70
2023-05-19T01:37:05.382Z,95.70
2023-05-19T01:37:15.900Z,95.54
2023-05-19T01:37:26.399Z,95.59
2023-05-19T01:37:36.903Z,95.49
2023-05-19T01:37:47.414Z,95.39
2023-05-19T01:37:57.929Z,95.39
2023-05-19T01:38:08.429Z,95.28
2023-05-19T01:38:18.935Z,95.28
2023-05-19T01:38:29.514Z,95.18
2023-05-19T01:38:39.963Z,95.07
2023-05-19T01:38:50.462Z,95.07
2023-05-19T01:39:00.965Z,95.18
2023-05-19T01:39:11.474Z,95.18
2023-05-19T01:39:21.982Z,95.28
2023-05-19T01:39:32.499Z,95.39
2023-05-19T01:39:43.004Z,95.39
2023-05-19T01:39:53.514Z,95.49
2023-05-19T01:40:04.046Z,95.59
2023-05-19T01:40:14.535Z,95.59
2023-05-19T01:40:25.036Z,95.59
2023-05-19T01:40:35.543Z,95.70
2023-05-19T01:40:46.058Z,95.70
2023-05-19T01:40:56.561Z,95.70
2023-05-19T01:41:07.076Z,95.80
2023-05-19T01:41:17.584Z,95.80
2023-05-19T01:41:28.079Z,95.70
2023-05-19T01:41:38.599Z,95.70
2023-05-19T01:41:49.098Z,95.70
2023-05-19T01:41:59.618Z,95.70
2023-05-19T01:42:10.118Z,95.70
2023-05-19T01:42:20.642Z,95.70
2023-05-19T01:42:31.146Z,95.70
2023-05-19T01:42:41.655Z,95.70
2023-05-19T01:42:52.148Z,95.80
2023-05-19T01:43:02.760Z,95.90
2023-05-19T01:43:13.209Z,95.90
2023-05-19T01:43:23.674Z,95.90
2023-05-19T01:43:34.209Z,95.90
2023-05-19T01:43:44.703Z,95.90
2023-05-19T01:43:55.202Z,95.90
2023-05-19T01:44:05.725Z,95.80
2023-05-19T01:44:16.231Z,95.80
2023-05-19T01:44:26.742Z,95.80
2023-05-19T01:44:37.236Z,95.70
2023-05-19T01:44:47.778Z,95.70
2023-05-19T01:44:58.276Z,95.70
2023-05-19T01:45:08.770Z,95.70
2023-05-19T01:45:19.277Z,95.70
2023-05-19T01:45:29.775Z,95.70
2023-05-19T01:45:40.337Z,95.80
2023-05-19T01:45:50.817Z,95.80
2023-05-19T01:46:01.318Z,95.90
2023-05-19T01:46:11.891Z,96.01
2023-05-19T01:46:22.362Z,96.01
2023-05-19T01:46:32.960Z,96.11
2023-05-19T01:46:43.360Z,96.11
2023-05-19T01:46:53.849Z,96.21
2023-05-19T01:47:04.351Z,96.21
2023-05-19T01:47:14.860Z,96.11
2023-05-19T01:47:25.468Z,96.11
2023-05-19T01:47:35.928Z,96.01
2023-05-19T01:47:46.453Z,96.01
2023-05-19T01:47:56.942Z,95.90
2023-05-19T01:48:10.683Z,95.80
2023-05-19T01:48:17.921Z,95.70
2023-05-19T01:48:28.458Z,95.70
2023-05-19T01:48:38.936Z,95.59
2023-05-19T01:48:49.443Z,95.59
2023-05-19T01:48:59.968Z,95.59
2023-05-19T01:49:10.461Z,95.59
2023-05-19T01:49:20.970Z,95.59
2023-05-19T01:49:31.476Z,95.59
2023-05-19T01:49:41.983Z,95.59
2023-05-19T01:49:52.488Z,95.59
2023-05-19T01:50:02.996Z,95.59
2023-05-19T01:50:13.514Z,95.59
2023-05-19T01:50:24.049Z,95.59
2023-05-19T01:50:34.767Z,95.70
2023-05-19T01:50:45.030Z,95.70
2023-05-19T01:50:55.578Z,95.74
2023-05-19T01:51:06.053Z,95.74
2023-05-19T01:51:16.558Z,95.64
2023-05-19T01:51:27.064Z,95.64
2023-05-19T01:51:37.568Z,95.53
2023-05-19T01:51:48.079Z,95.49
2023-05-19T01:51:58.587Z,95.39
2023-05-19T01:52:09.103Z,95.39
2023-05-19T01:52:19.599Z,95.49
2023-05-19T01:52:30.109Z,95.59
2023-05-19T01:52:40.616Z,95.59
2023-05-19T01:52:51.120Z,95.70
2023-05-19T01:53:01.654Z,95.70
2023-05-19T01:53:12.140Z,95.80
2023-05-19T01:53:22.636Z,95.80
2023-05-19T01:53:33.156Z,95.80
2023-05-19T01:53:43.650Z,95.70
2023-05-19T01:53:54.160Z,95.70
2023-05-19T01:54:04.666Z,95.70
2023-05-19T01:54:15.175Z,95.70
2023-05-19T01:54:25.684Z,95.59
2023-05-19T01:54:36.200Z,95.59
2023-05-19T01:54:46.709Z,95.49
2023-05-19T01:54:57.211Z,95.53
2023-05-19T01:55:07.708Z,95.64
2023-05-19T01:55:18.244Z,95.74
2023-05-19T01:55:28.744Z,95.84
2023-05-19T01:55:39.233Z,95.84
2023-05-19T01:55:49.771Z,95.95
2023-05-19T01:56:00.257Z,96.05
2023-05-19T01:56:10.761Z,96.05
2023-05-19T01:56:21.267Z,96.15
2023-05-19T01:56:31.782Z,96.26
2023-05-19T01:56:42.288Z,96.31
2023-05-19T01:56:52.791Z,96.36
2023-05-19T01:57:03.309Z,96.42
2023-05-19T01:57:13.805Z,96.52
2023-05-19T01:57:24.317Z,96.52
2023-05-19T01:57:34.844Z,96.52
2023-05-19T01:57:45.328Z,96.52
2023-05-19T01:57:55.860Z,96.42
2023-05-19T01:58:06.350Z,96.31
2023-05-19T01:58:16.874Z,96.21
2023-05-19T01:58:27.376Z,96.15
2023-05-19T01:58:37.881Z,96.05
2023-05-19T01:58:48.396Z,95.95
2023-05-19T01:58:58.892Z,95.95
2023-05-19T01:59:09.420Z,95.95
2023-05-19T01:59:19.913Z,95.95
2023-05-19T01:59:30.422Z,96.05
2023-05-19T01:59:40.927Z,96.05
2023-05-19T01:59:51.465Z,96.05
2023-05-19T02:00:01.951Z,95.95
2023-05-19T02:00:12.472Z,95.95
2023-05-19T02:00:22.966Z,95.95
2023-05-19T02:00:33.784Z,95.84
2023-05-19T02:00:44.020Z,95.80
2023-05-19T02:00:54.524Z,95.70
2023-05-19T02:01:05.058Z,95.70
2023-05-19T02:01:15.549Z,95.59
2023-05-19T02:01:26.126Z,95.53
2023-05-19T02:01:36.560Z,95.43
2023-05-19T02:01:47.239Z,95.32
2023-05-19T02:01:57.549Z,95.22
2023-05-19T02:02:08.049Z,95.12
2023-05-19T02:02:18.562Z,95.12
2023-05-19T02:02:29.083Z,95.01
2023-05-19T02:02:39.635Z,95.01
2023-05-19T02:02:50.083Z,95.01
2023-05-19T02:03:00.653Z,95.01
2023-05-19T02:03:11.089Z,95.01
2023-05-19T02:03:21.606Z,95.01
2023-05-19T02:03:32.110Z,95.06
2023-05-19T02:03:42.628Z,95.16
2023-05-19T02:03:53.145Z,95.16
2023-05-19T02:04:03.722Z,95.16
2023-05-19T02:04:14.214Z,95.26
2023-05-19T02:04:24.671Z,95.26
2023-05-19T02:04:35.226Z,95.26
2023-05-19T02:04:45.783Z,95.37
2023-05-19T02:04:56.233Z,95.37
2023-05-19T02:05:06.683Z,95.37
2023-05-19T02:05:17.188Z,95.47
2023-05-19T02:05:27.709Z,95.47
2023-05-19T02:05:38.206Z,95.57
2023-05-19T02:05:48.740Z,95.62
2023-05-19T02:05:59.261Z,95.72
2023-05-19T02:06:09.744Z,95.83
2023-05-19T02:06:20.255Z,95.83
2023-05-19T02:06:30.750Z,95.93
2023-05-19T02:06:41.263Z,96.03
2023-05-19T02:06:51.768Z,96.03
2023-05-19T02:07:02.266Z,96.14
2023-05-19T02:07:12.787Z,96.14
2023-05-19T02:07:23.289Z,96.24
2023-05-19T02:07:33.803Z,96.34
2023-05-19T02:07:44.332Z,96.34
2023-05-19T02:07:54.822Z,96.45
2023-05-19T02:08:05.325Z,96.45
2023-05-19T02:08:15.858Z,96.55
2023-05-19T02:08:26.352Z,96.55
2023-05-19T02:08:36.855Z,96.55
2023-05-19T02:08:47.369Z,96.66
2023-05-19T02:08:57.882Z,96.66
2023-05-19T02:09:08.381Z,96.66
2023-05-19T02:09:18.892Z,96.55
2023-05-19T02:09:29.415Z,96.55
2023-05-19T02:09:39.917Z,96.55
2023-05-19T02:09:50.427Z,96.45
2023-05-19T02:10:00.936Z,96.45
2023-05-19T02:10:11.428Z,96.34
2023-05-19T02:10:21.941Z,96.34
2023-05-19T02:10:32.592Z,96.45
2023-05-19T02:10:42.961Z,96.45
2023-05-19T02:10:53.465Z,96.45
2023-05-19T02:11:03.971Z,96.41
2023-05-19T02:11:14.481Z,96.51
2023-05-19T02:11:24.993Z,96.51
2023-05-19T02:11:35.488Z,96.51
2023-05-19T02:11:46.004Z,96.51
2023-05-19T02:11:56.509Z,96.51
2023-05-19T02:12:07.022Z,96.51
2023-05-19T02:12:17.531Z,96.51
2023-05-19T02:12:28.040Z,96.51
2023-05-19T02:12:38.548Z,96.51
2023-05-19T02:12:49.064Z,96.51
2023-05-19T02:12:59.565Z,96.51
2023-05-19T02:13:10.072Z,96.55
2023-05-19T02:13:20.604Z,96.51
2023-05-19T02:13:31.118Z,96.51
2023-05-19T02:13:41.591Z,96.51
2023-05-19T02:13:52.103Z,96.55
2023-05-19T02:14:02.614Z,96.55
2023-05-19T02:14:13.133Z,96.45
2023-05-19T02:14:23.653Z,96.45
2023-05-19T02:14:34.143Z,96.34
2023-05-19T02:14:44.658Z,96.34
2023-05-19T02:14:55.169Z,96.34
2023-05-19T02:15:05.674Z,96.24
2023-05-19T02:15:16.176Z,96.24